Portada
METAR-TAF:

METAR-TAF

Aeroports :

Aeroport de Kerry

Killarney, Irlanda

latitud: 52-10-51N, longitud: 9-31-26W, altitud: 34 m

Observació

L'informe es va fer fa 6 hores i 32 minuts, a les 18:00 UTC
Vent 13 kt del Nord/Nord-Oest amb ràfegues de 23 kt, variant entre Oest/Nord-Oest i Nord/Nord-Est
Temperatura 12°C
Humitat 62%
Pressió 1007 hPa
Visibilitat 10 km o més
Cel ennuvolat a una alçada de 3400 ft

METAR: EIKY 051800Z 34013G23KT 300V020 9999 BKN034 12/05 Q1007

Hora: 01:32 (00:32 UTC)

Pronòstic

L'informe es va fer fa 7 hores i 32 minuts, a les 17:00 UTC
Pronòstic vàlid del 05 a les 18 UTC al 06 a les 03 UTC
Vent 15 kt del Nord/Nord-Oest amb ràfegues de 25 kt
Visibilitat 10 km o més
Núvols disperses a una alçada de 2000 ft
Núvols disperses a una alçada de 3000 ft

TAF: EIKY 051700Z 0518/0603 33015G25KT 9999 SCT020 SCT030

Observacions i pronòstics meteorològics de més de 4000 aeroports (METAR i TAF).

Les estacions disponibles són els punts grocs i vermells al mapa.

Posi el ratolí al punt desitjat per veure el nom de l'estació.

Feu clic per veure les observacions i els pronòstics meteorològics.

Per canviar el mapa: feu clic els botons verds amb una creu de color negre per apropar; al botó verd amb un guió per allunyar la imatge; o en les fletxes verdes per a mapes adjacents.


METAR-TAF: